sensor_id;sensor_type;location;lat;lon;timestamp;P1;durP1;ratioP1;P2;durP2;ratioP2
14121;SDS011;7139;48.114;11.442;2022-08-19T00:00:34;6.67;;;6.07;;
14121;SDS011;7139;48.114;11.442;2022-08-19T00:03:02;6.70;;;6.13;;
14121;SDS011;7139;48.114;11.442;2022-08-19T00:05:29;6.97;;;6.37;;
14121;SDS011;7139;48.114;11.442;2022-08-19T00:07:56;7.60;;;6.90;;
14121;SDS011;7139;48.114;11.442;2022-08-19T00:10:24;7.13;;;6.53;;
14121;SDS011;7139;48.114;11.442;2022-08-19T00:12:50;7.40;;;6.70;;
14121;SDS011;7139;48.114;11.442;2022-08-19T00:15:20;8.00;;;7.30;;
14121;SDS011;7139;48.114;11.442;2022-08-19T00:17:47;7.90;;;7.23;;
14121;SDS011;7139;48.114;11.442;2022-08-19T00:20:16;8.50;;;7.37;;
14121;SDS011;7139;48.114;11.442;2022-08-19T00:22:45;7.23;;;6.53;;
14121;SDS011;7139;48.114;11.442;2022-08-19T00:25:12;7.90;;;7.20;;
14121;SDS011;7139;48.114;11.442;2022-08-19T00:27:39;8.10;;;7.30;;
14121;SDS011;7139;48.114;11.442;2022-08-19T00:30:07;8.43;;;7.70;;
14121;SDS011;7139;48.114;11.442;2022-08-19T00:32:36;9.00;;;8.20;;
14121;SDS011;7139;48.114;11.442;2022-08-19T00:35:04;8.77;;;8.07;;
14121;SDS011;7139;48.114;11.442;2022-08-19T00:37:32;8.83;;;8.03;;
14121;SDS011;7139;48.114;11.442;2022-08-19T00:39:59;8.60;;;7.80;;
14121;SDS011;7139;48.114;11.442;2022-08-19T00:42:27;8.33;;;7.63;;
14121;SDS011;7139;48.114;11.442;2022-08-19T00:44:54;9.67;;;8.40;;
14121;SDS011;7139;48.114;11.442;2022-08-19T00:47:21;9.67;;;8.70;;
14121;SDS011;7139;48.114;11.442;2022-08-19T00:49:49;10.40;;;9.40;;
14121;SDS011;7139;48.114;11.442;2022-08-19T00:52:19;10.20;;;9.27;;
14121;SDS011;7139;48.114;11.442;2022-08-19T00:54:49;10.33;;;9.37;;
14121;SDS011;7139;48.114;11.442;2022-08-19T00:57:18;9.77;;;8.87;;
14121;SDS011;7139;48.114;11.442;2022-08-19T00:59:51;10.47;;;9.57;;
14121;SDS011;7139;48.114;11.442;2022-08-19T01:02:20;11.60;;;10.60;;
14121;SDS011;7139;48.114;11.442;2022-08-19T01:04:46;10.87;;;9.97;;
14121;SDS011;7139;48.114;11.442;2022-08-19T01:07:15;11.37;;;10.37;;
14121;SDS011;7139;48.114;11.442;2022-08-19T01:09:41;11.23;;;10.23;;
14121;SDS011;7139;48.114;11.442;2022-08-19T01:12:08;10.83;;;9.73;;
14121;SDS011;7139;48.114;11.442;2022-08-19T01:14:35;12.00;;;10.90;;
14121;SDS011;7139;48.114;11.442;2022-08-19T01:17:05;11.80;;;10.73;;
14121;SDS011;7139;48.114;11.442;2022-08-19T01:19:33;12.00;;;10.90;;
14121;SDS011;7139;48.114;11.442;2022-08-19T01:22:06;11.07;;;10.07;;
14121;SDS011;7139;48.114;11.442;2022-08-19T01:24:38;11.53;;;10.47;;
14121;SDS011;7139;48.114;11.442;2022-08-19T01:27:05;11.43;;;10.33;;
14121;SDS011;7139;48.114;11.442;2022-08-19T01:29:32;11.43;;;10.43;;
14121;SDS011;7139;48.114;11.442;2022-08-19T01:32:00;11.30;;;10.30;;
14121;SDS011;7139;48.114;11.442;2022-08-19T01:34:27;11.43;;;10.37;;
14121;SDS011;7139;48.114;11.442;2022-08-19T01:36:54;10.47;;;9.57;;
14121;SDS011;7139;48.114;11.442;2022-08-19T01:39:22;11.17;;;10.13;;
14121;SDS011;7139;48.114;11.442;2022-08-19T01:41:52;12.47;;;11.27;;
14121;SDS011;7139;48.114;11.442;2022-08-19T01:44:19;11.20;;;10.20;;
14121;SDS011;7139;48.114;11.442;2022-08-19T01:46:48;10.63;;;9.63;;
14121;SDS011;7139;48.114;11.442;2022-08-19T01:49:16;11.20;;;10.10;;
14121;SDS011;7139;48.114;11.442;2022-08-19T01:51:45;11.00;;;9.93;;
14121;SDS011;7139;48.114;11.442;2022-08-19T01:54:13;11.03;;;10.03;;
14121;SDS011;7139;48.114;11.442;2022-08-19T01:56:40;11.13;;;10.13;;
14121;SDS011;7139;48.114;11.442;2022-08-19T01:59:10;10.73;;;9.83;;
14121;SDS011;7139;48.114;11.442;2022-08-19T02:01:39;10.93;;;9.93;;
14121;SDS011;7139;48.114;11.442;2022-08-19T02:04:06;10.20;;;9.30;;
14121;SDS011;7139;48.114;11.442;2022-08-19T02:06:33;10.07;;;9.20;;
14121;SDS011;7139;48.114;11.442;2022-08-19T02:09:00;9.77;;;8.97;;
14121;SDS011;7139;48.114;11.442;2022-08-19T02:11:28;9.20;;;8.40;;
14121;SDS011;7139;48.114;11.442;2022-08-19T02:13:59;8.63;;;7.83;;
14121;SDS011;7139;48.114;11.442;2022-08-19T02:16:28;9.77;;;8.97;;
14121;SDS011;7139;48.114;11.442;2022-08-19T02:18:55;9.93;;;9.13;;
14121;SDS011;7139;48.114;11.442;2022-08-19T02:21:25;10.67;;;9.40;;
14121;SDS011;7139;48.114;11.442;2022-08-19T02:23:52;9.50;;;8.60;;
14121;SDS011;7139;48.114;11.442;2022-08-19T02:26:20;9.23;;;8.27;;
14121;SDS011;7139;48.114;11.442;2022-08-19T02:28:48;9.50;;;8.70;;
14121;SDS011;7139;48.114;11.442;2022-08-19T02:31:15;9.77;;;8.87;;
14121;SDS011;7139;48.114;11.442;2022-08-19T02:33:45;9.30;;;8.40;;
14121;SDS011;7139;48.114;11.442;2022-08-19T02:36:13;8.70;;;7.93;;
14121;SDS011;7139;48.114;11.442;2022-08-19T02:38:42;9.37;;;8.47;;
14121;SDS011;7139;48.114;11.442;2022-08-19T02:41:11;7.77;;;7.17;;
14121;SDS011;7139;48.114;11.442;2022-08-19T02:43:39;9.00;;;8.17;;
14121;SDS011;7139;48.114;11.442;2022-08-19T02:46:13;8.20;;;7.50;;
14121;SDS011;7139;48.114;11.442;2022-08-19T02:48:47;8.30;;;7.60;;
14121;SDS011;7139;48.114;11.442;2022-08-19T02:51:18;8.80;;;8.00;;
14121;SDS011;7139;48.114;11.442;2022-08-19T02:53:50;8.47;;;7.77;;
14121;SDS011;7139;48.114;11.442;2022-08-19T02:56:17;7.87;;;7.17;;
14121;SDS011;7139;48.114;11.442;2022-08-19T02:58:45;8.00;;;7.30;;
14121;SDS011;7139;48.114;11.442;2022-08-19T03:01:19;7.27;;;6.60;;
14121;SDS011;7139;48.114;11.442;2022-08-19T03:03:48;7.63;;;7.03;;
14121;SDS011;7139;48.114;11.442;2022-08-19T03:06:15;7.93;;;7.13;;
14121;SDS011;7139;48.114;11.442;2022-08-19T03:08:43;7.77;;;7.07;;
14121;SDS011;7139;48.114;11.442;2022-08-19T03:11:14;7.90;;;7.27;;
14121;SDS011;7139;48.114;11.442;2022-08-19T03:13:42;7.87;;;7.10;;
14121;SDS011;7139;48.114;11.442;2022-08-19T03:16:09;8.93;;;8.13;;
14121;SDS011;7139;48.114;11.442;2022-08-19T03:18:37;8.40;;;7.60;;
14121;SDS011;7139;48.114;11.442;2022-08-19T03:21:05;7.10;;;6.53;;
14121;SDS011;7139;48.114;11.442;2022-08-19T03:23:32;8.40;;;7.60;;
14121;SDS011;7139;48.114;11.442;2022-08-19T03:25:59;7.20;;;6.57;;
14121;SDS011;7139;48.114;11.442;2022-08-19T03:28:31;8.27;;;7.47;;
14121;SDS011;7139;48.114;11.442;2022-08-19T03:31:00;7.73;;;7.03;;
14121;SDS011;7139;48.114;11.442;2022-08-19T03:33:29;7.67;;;6.97;;
14121;SDS011;7139;48.114;11.442;2022-08-19T03:36:01;7.30;;;6.60;;
14121;SDS011;7139;48.114;11.442;2022-08-19T03:38:31;8.00;;;7.30;;
14121;SDS011;7139;48.114;11.442;2022-08-19T03:41:01;7.50;;;6.80;;
14121;SDS011;7139;48.114;11.442;2022-08-19T03:43:31;8.50;;;7.80;;
14121;SDS011;7139;48.114;11.442;2022-08-19T03:45:59;7.57;;;6.87;;
14121;SDS011;7139;48.114;11.442;2022-08-19T03:48:29;7.73;;;7.13;;
14121;SDS011;7139;48.114;11.442;2022-08-19T03:50:56;7.63;;;7.03;;
14121;SDS011;7139;48.114;11.442;2022-08-19T03:53:24;7.57;;;6.87;;
14121;SDS011;7139;48.114;11.442;2022-08-19T03:55:53;7.90;;;7.17;;
14121;SDS011;7139;48.114;11.442;2022-08-19T03:58:20;7.43;;;6.77;;
14121;SDS011;7139;48.114;11.442;2022-08-19T04:00:47;8.17;;;7.37;;
14121;SDS011;7139;48.114;11.442;2022-08-19T04:03:14;8.47;;;7.70;;
14121;SDS011;7139;48.114;11.442;2022-08-19T04:05:41;8.00;;;7.30;;
14121;SDS011;7139;48.114;11.442;2022-08-19T04:08:08;8.20;;;7.47;;
14121;SDS011;7139;48.114;11.442;2022-08-19T04:10:35;8.93;;;8.13;;
14121;SDS011;7139;48.114;11.442;2022-08-19T04:13:03;9.37;;;8.57;;
14121;SDS011;7139;48.114;11.442;2022-08-19T04:15:32;8.47;;;7.77;;
14121;SDS011;7139;48.114;11.442;2022-08-19T04:18:04;9.70;;;8.80;;
14121;SDS011;7139;48.114;11.442;2022-08-19T04:20:32;9.00;;;8.10;;
14121;SDS011;7139;48.114;11.442;2022-08-19T04:22:59;9.53;;;8.53;;
14121;SDS011;7139;48.114;11.442;2022-08-19T04:25:26;9.10;;;8.30;;
14121;SDS011;7139;48.114;11.442;2022-08-19T04:27:52;9.27;;;8.37;;
14121;SDS011;7139;48.114;11.442;2022-08-19T04:30:20;9.13;;;8.33;;
14121;SDS011;7139;48.114;11.442;2022-08-19T04:32:47;9.30;;;8.33;;
14121;SDS011;7139;48.114;11.442;2022-08-19T04:35:15;10.03;;;9.03;;
14121;SDS011;7139;48.114;11.442;2022-08-19T04:37:42;9.53;;;8.67;;
14121;SDS011;7139;48.114;11.442;2022-08-19T04:40:09;10.33;;;9.33;;
14121;SDS011;7139;48.114;11.442;2022-08-19T04:42:54;10.90;;;9.80;;
14121;SDS011;7139;48.114;11.442;2022-08-19T04:45:22;10.20;;;9.13;;
14121;SDS011;7139;48.114;11.442;2022-08-19T04:47:49;11.30;;;10.10;;
14121;SDS011;7139;48.114;11.442;2022-08-19T04:50:21;10.07;;;9.07;;
14121;SDS011;7139;48.114;11.442;2022-08-19T04:52:49;10.70;;;9.70;;
14121;SDS011;7139;48.114;11.442;2022-08-19T04:55:16;9.77;;;8.87;;
14121;SDS011;7139;48.114;11.442;2022-08-19T04:57:43;10.73;;;9.70;;
14121;SDS011;7139;48.114;11.442;2022-08-19T05:00:10;10.13;;;9.23;;
14121;SDS011;7139;48.114;11.442;2022-08-19T05:02:39;10.20;;;9.20;;
14121;SDS011;7139;48.114;11.442;2022-08-19T05:05:06;9.80;;;8.80;;
14121;SDS011;7139;48.114;11.442;2022-08-19T05:07:33;9.37;;;8.57;;
14121;SDS011;7139;48.114;11.442;2022-08-19T05:10:00;9.63;;;8.23;;
14121;SDS011;7139;48.114;11.442;2022-08-19T05:12:27;9.50;;;8.40;;
14121;SDS011;7139;48.114;11.442;2022-08-19T05:14:54;10.53;;;9.43;;
14121;SDS011;7139;48.114;11.442;2022-08-19T05:17:21;9.67;;;8.67;;
14121;SDS011;7139;48.114;11.442;2022-08-19T05:19:50;9.67;;;8.77;;
14121;SDS011;7139;48.114;11.442;2022-08-19T05:22:34;9.90;;;8.93;;
14121;SDS011;7139;48.114;11.442;2022-08-19T05:25:02;9.30;;;8.50;;
14121;SDS011;7139;48.114;11.442;2022-08-19T05:27:31;9.90;;;8.90;;
14121;SDS011;7139;48.114;11.442;2022-08-19T05:29:58;9.93;;;8.93;;
14121;SDS011;7139;48.114;11.442;2022-08-19T05:32:25;10.27;;;9.27;;
14121;SDS011;7139;48.114;11.442;2022-08-19T05:34:54;10.60;;;9.60;;
14121;SDS011;7139;48.114;11.442;2022-08-19T05:37:21;9.27;;;8.37;;
14121;SDS011;7139;48.114;11.442;2022-08-19T05:39:51;10.33;;;9.23;;
14121;SDS011;7139;48.114;11.442;2022-08-19T05:42:19;10.60;;;9.60;;
14121;SDS011;7139;48.114;11.442;2022-08-19T05:44:47;10.50;;;9.50;;
14121;SDS011;7139;48.114;11.442;2022-08-19T05:47:14;10.93;;;8.67;;
14121;SDS011;7139;48.114;11.442;2022-08-19T05:49:43;9.87;;;8.97;;
14121;SDS011;7139;48.114;11.442;2022-08-19T05:52:12;10.37;;;9.40;;
14121;SDS011;7139;48.114;11.442;2022-08-19T05:54:40;11.73;;;10.57;;
14121;SDS011;7139;48.114;11.442;2022-08-19T05:57:08;11.40;;;10.40;;
14121;SDS011;7139;48.114;11.442;2022-08-19T05:59:35;12.83;;;11.63;;
14121;SDS011;7139;48.114;11.442;2022-08-19T06:02:03;13.13;;;11.90;;
14121;SDS011;7139;48.114;11.442;2022-08-19T06:04:31;13.10;;;11.80;;
14121;SDS011;7139;48.114;11.442;2022-08-19T06:06:58;13.03;;;11.93;;
14121;SDS011;7139;48.114;11.442;2022-08-19T06:09:27;12.73;;;11.63;;
14121;SDS011;7139;48.114;11.442;2022-08-19T06:11:55;12.87;;;11.57;;
14121;SDS011;7139;48.114;11.442;2022-08-19T06:14:25;13.97;;;12.67;;
14121;SDS011;7139;48.114;11.442;2022-08-19T06:16:53;12.10;;;10.97;;
14121;SDS011;7139;48.114;11.442;2022-08-19T06:19:20;11.97;;;10.87;;
14121;SDS011;7139;48.114;11.442;2022-08-19T06:21:49;12.80;;;11.60;;
14121;SDS011;7139;48.114;11.442;2022-08-19T06:24:18;12.73;;;11.53;;
14121;SDS011;7139;48.114;11.442;2022-08-19T06:26:50;11.53;;;10.43;;
14121;SDS011;7139;48.114;11.442;2022-08-19T06:29:18;12.57;;;11.37;;
14121;SDS011;7139;48.114;11.442;2022-08-19T06:31:47;11.70;;;10.60;;
14121;SDS011;7139;48.114;11.442;2022-08-19T06:34:15;11.33;;;10.27;;
14121;SDS011;7139;48.114;11.442;2022-08-19T06:36:44;10.70;;;9.70;;
14121;SDS011;7139;48.114;11.442;2022-08-19T06:39:14;10.87;;;9.87;;
14121;SDS011;7139;48.114;11.442;2022-08-19T06:41:44;11.70;;;10.60;;
14121;SDS011;7139;48.114;11.442;2022-08-19T06:44:15;11.67;;;10.47;;
14121;SDS011;7139;48.114;11.442;2022-08-19T06:46:43;11.67;;;10.60;;
14121;SDS011;7139;48.114;11.442;2022-08-19T06:49:10;12.27;;;11.07;;
14121;SDS011;7139;48.114;11.442;2022-08-19T06:51:39;12.00;;;10.90;;
14121;SDS011;7139;48.114;11.442;2022-08-19T06:54:07;13.70;;;12.50;;
14121;SDS011;7139;48.114;11.442;2022-08-19T06:56:34;14.37;;;12.90;;
14121;SDS011;7139;48.114;11.442;2022-08-19T06:59:01;14.13;;;12.83;;
14121;SDS011;7139;48.114;11.442;2022-08-19T07:01:31;14.30;;;13.00;;
14121;SDS011;7139;48.114;11.442;2022-08-19T07:04:02;14.80;;;13.37;;
14121;SDS011;7139;48.114;11.442;2022-08-19T07:06:29;16.27;;;14.77;;
14121;SDS011;7139;48.114;11.442;2022-08-19T07:08:57;15.93;;;14.43;;
14121;SDS011;7139;48.114;11.442;2022-08-19T07:11:24;14.80;;;13.40;;
14121;SDS011;7139;48.114;11.442;2022-08-19T07:13:51;16.70;;;15.00;;
14121;SDS011;7139;48.114;11.442;2022-08-19T07:16:18;15.80;;;14.30;;
14121;SDS011;7139;48.114;11.442;2022-08-19T07:18:48;15.53;;;13.97;;
14121;SDS011;7139;48.114;11.442;2022-08-19T07:21:17;14.67;;;13.30;;
14121;SDS011;7139;48.114;11.442;2022-08-19T07:23:45;17.07;;;15.47;;
14121;SDS011;7139;48.114;11.442;2022-08-19T07:26:13;18.80;;;17.00;;
14121;SDS011;7139;48.114;11.442;2022-08-19T07:28:45;19.27;;;17.47;;
14121;SDS011;7139;48.114;11.442;2022-08-19T07:31:13;21.63;;;19.47;;
14121;SDS011;7139;48.114;11.442;2022-08-19T07:33:43;21.93;;;19.83;;
14121;SDS011;7139;48.114;11.442;2022-08-19T07:36:13;24.37;;;21.97;;
14121;SDS011;7139;48.114;11.442;2022-08-19T07:38:43;23.77;;;21.57;;
14121;SDS011;7139;48.114;11.442;2022-08-19T07:41:12;22.93;;;20.73;;
14121;SDS011;7139;48.114;11.442;2022-08-19T07:43:41;25.90;;;23.33;;
14121;SDS011;7139;48.114;11.442;2022-08-19T07:46:08;26.90;;;24.20;;
14121;SDS011;7139;48.114;11.442;2022-08-19T07:48:37;27.87;;;25.10;;
14121;SDS011;7139;48.114;11.442;2022-08-19T07:51:05;29.67;;;26.60;;
14121;SDS011;7139;48.114;11.442;2022-08-19T07:53:34;25.43;;;23.10;;
14121;SDS011;7139;48.114;11.442;2022-08-19T07:56:03;26.43;;;23.87;;
14121;SDS011;7139;48.114;11.442;2022-08-19T07:58:31;26.23;;;23.73;;
14121;SDS011;7139;48.114;11.442;2022-08-19T08:01:00;28.07;;;25.30;;
14121;SDS011;7139;48.114;11.442;2022-08-19T08:03:27;25.93;;;23.33;;
14121;SDS011;7139;48.114;11.442;2022-08-19T08:06:08;27.43;;;24.63;;
14121;SDS011;7139;48.114;11.442;2022-08-19T08:08:54;27.97;;;25.07;;
14121;SDS011;7139;48.114;11.442;2022-08-19T08:11:47;26.77;;;24.00;;
14121;SDS011;7139;48.114;11.442;2022-08-19T08:14:18;26.47;;;23.77;;
14121;SDS011;7139;48.114;11.442;2022-08-19T08:16:47;28.80;;;25.70;;
14121;SDS011;7139;48.114;11.442;2022-08-19T08:19:16;27.27;;;24.57;;
14121;SDS011;7139;48.114;11.442;2022-08-19T08:21:44;28.07;;;25.17;;
14121;SDS011;7139;48.114;11.442;2022-08-19T08:24:12;27.40;;;24.50;;
14121;SDS011;7139;48.114;11.442;2022-08-19T08:26:39;27.20;;;24.40;;
14121;SDS011;7139;48.114;11.442;2022-08-19T08:29:07;25.97;;;23.27;;
14121;SDS011;7139;48.114;11.442;2022-08-19T08:31:35;25.40;;;22.83;;
14121;SDS011;7139;48.114;11.442;2022-08-19T08:34:02;25.37;;;22.67;;
14121;SDS011;7139;48.114;11.442;2022-08-19T08:36:29;25.17;;;22.47;;
14121;SDS011;7139;48.114;11.442;2022-08-19T08:38:58;24.67;;;22.13;;
14121;SDS011;7139;48.114;11.442;2022-08-19T08:41:28;30.23;;;22.10;;
14121;SDS011;7139;48.114;11.442;2022-08-19T08:44:06;25.47;;;22.80;;
14121;SDS011;7139;48.114;11.442;2022-08-19T08:46:41;26.30;;;23.70;;
14121;SDS011;7139;48.114;11.442;2022-08-19T08:49:16;24.80;;;22.20;;
14121;SDS011;7139;48.114;11.442;2022-08-19T08:51:59;24.27;;;21.73;;
14121;SDS011;7139;48.114;11.442;2022-08-19T08:54:30;24.63;;;22.17;;
14121;SDS011;7139;48.114;11.442;2022-08-19T08:57:03;25.77;;;23.07;;
14121;SDS011;7139;48.114;11.442;2022-08-19T08:59:47;26.93;;;24.10;;
14121;SDS011;7139;48.114;11.442;2022-08-19T09:02:16;23.37;;;21.03;;
14121;SDS011;7139;48.114;11.442;2022-08-19T09:04:44;25.33;;;22.63;;
14121;SDS011;7139;48.114;11.442;2022-08-19T09:07:15;23.73;;;21.23;;
14121;SDS011;7139;48.114;11.442;2022-08-19T09:09:51;21.07;;;18.93;;
14121;SDS011;7139;48.114;11.442;2022-08-19T09:12:24;23.03;;;20.63;;
14121;SDS011;7139;48.114;11.442;2022-08-19T09:15:02;21.83;;;19.63;;
14121;SDS011;7139;48.114;11.442;2022-08-19T09:17:33;24.43;;;21.93;;
14121;SDS011;7139;48.114;11.442;2022-08-19T09:20:02;24.77;;;22.00;;
14121;SDS011;7139;48.114;11.442;2022-08-19T09:22:33;23.53;;;21.23;;
14121;SDS011;7139;48.114;11.442;2022-08-19T09:25:00;27.47;;;24.47;;
14121;SDS011;7139;48.114;11.442;2022-08-19T09:27:30;26.37;;;23.73;;
14121;SDS011;7139;48.114;11.442;2022-08-19T09:29:58;26.53;;;23.57;;
14121;SDS011;7139;48.114;11.442;2022-08-19T09:32:25;22.90;;;20.53;;
14121;SDS011;7139;48.114;11.442;2022-08-19T09:34:52;26.40;;;23.70;;
14121;SDS011;7139;48.114;11.442;2022-08-19T09:37:19;24.90;;;22.30;;
14121;SDS011;7139;48.114;11.442;2022-08-19T09:39:46;23.90;;;21.47;;
14121;SDS011;7139;48.114;11.442;2022-08-19T09:42:13;23.90;;;21.57;;
14121;SDS011;7139;48.114;11.442;2022-08-19T09:44:41;26.33;;;23.60;;
14121;SDS011;7139;48.114;11.442;2022-08-19T09:47:09;24.27;;;21.73;;
14121;SDS011;7139;48.114;11.442;2022-08-19T09:49:38;27.03;;;23.33;;
14121;SDS011;7139;48.114;11.442;2022-08-19T09:52:06;25.27;;;22.77;;
14121;SDS011;7139;48.114;11.442;2022-08-19T09:54:35;23.97;;;21.47;;
14121;SDS011;7139;48.114;11.442;2022-08-19T09:57:02;25.03;;;21.97;;
14121;SDS011;7139;48.114;11.442;2022-08-19T09:59:29;25.40;;;22.67;;
14121;SDS011;7139;48.114;11.442;2022-08-19T10:01:58;25.20;;;22.60;;
14121;SDS011;7139;48.114;11.442;2022-08-19T10:04:25;26.23;;;23.53;;
14121;SDS011;7139;48.114;11.442;2022-08-19T10:07:12;29.07;;;24.87;;
14121;SDS011;7139;48.114;11.442;2022-08-19T10:09:39;25.97;;;23.17;;
14121;SDS011;7139;48.114;11.442;2022-08-19T10:12:06;27.93;;;24.90;;
14121;SDS011;7139;48.114;11.442;2022-08-19T10:14:33;25.63;;;22.97;;
14121;SDS011;7139;48.114;11.442;2022-08-19T10:17:02;26.63;;;23.83;;
14121;SDS011;7139;48.114;11.442;2022-08-19T10:19:29;26.50;;;23.80;;
14121;SDS011;7139;48.114;11.442;2022-08-19T10:22:02;24.50;;;21.93;;
14121;SDS011;7139;48.114;11.442;2022-08-19T10:24:29;27.50;;;24.47;;
14121;SDS011;7139;48.114;11.442;2022-08-19T10:26:57;27.37;;;24.47;;
14121;SDS011;7139;48.114;11.442;2022-08-19T10:29:23;27.37;;;24.47;;
14121;SDS011;7139;48.114;11.442;2022-08-19T10:31:53;22.23;;;20.00;;
14121;SDS011;7139;48.114;11.442;2022-08-19T10:34:22;22.07;;;19.87;;
14121;SDS011;7139;48.114;11.442;2022-08-19T10:36:49;20.40;;;18.30;;
14121;SDS011;7139;48.114;11.442;2022-08-19T10:39:16;18.23;;;16.50;;
14121;SDS011;7139;48.114;11.442;2022-08-19T10:41:43;17.53;;;15.73;;
14121;SDS011;7139;48.114;11.442;2022-08-19T10:44:10;16.73;;;15.13;;
14121;SDS011;7139;48.114;11.442;2022-08-19T10:46:39;16.50;;;14.90;;
14121;SDS011;7139;48.114;11.442;2022-08-19T10:49:08;14.23;;;12.93;;
14121;SDS011;7139;48.114;11.442;2022-08-19T10:51:37;17.30;;;15.70;;
14121;SDS011;7139;48.114;11.442;2022-08-19T10:54:22;16.53;;;15.07;;
14121;SDS011;7139;48.114;11.442;2022-08-19T10:57:09;15.07;;;13.77;;
14121;SDS011;7139;48.114;11.442;2022-08-19T10:59:35;15.02;;;13.63;;
14121;SDS011;7139;48.114;11.442;2022-08-19T11:02:04;17.03;;;15.33;;
14121;SDS011;7139;48.114;11.442;2022-08-19T11:04:34;19.47;;;17.60;;
14121;SDS011;7139;48.114;11.442;2022-08-19T11:07:02;19.00;;;17.03;;
14121;SDS011;7139;48.114;11.442;2022-08-19T11:09:30;18.47;;;16.70;;
14121;SDS011;7139;48.114;11.442;2022-08-19T11:11:58;16.20;;;14.70;;
14121;SDS011;7139;48.114;11.442;2022-08-19T11:14:24;15.87;;;14.37;;
14121;SDS011;7139;48.114;11.442;2022-08-19T11:16:52;12.30;;;11.20;;
14121;SDS011;7139;48.114;11.442;2022-08-19T11:19:21;10.87;;;9.97;;
14121;SDS011;7139;48.114;11.442;2022-08-19T11:21:49;13.90;;;12.70;;
14121;SDS011;7139;48.114;11.442;2022-08-19T11:24:19;10.63;;;9.63;;
14121;SDS011;7139;48.114;11.442;2022-08-19T11:26:47;9.47;;;8.67;;
14121;SDS011;7139;48.114;11.442;2022-08-19T11:29:16;9.20;;;8.40;;
14121;SDS011;7139;48.114;11.442;2022-08-19T11:31:45;9.17;;;8.37;;
14121;SDS011;7139;48.114;11.442;2022-08-19T11:34:16;9.40;;;8.50;;
14121;SDS011;7139;48.114;11.442;2022-08-19T11:36:45;9.07;;;8.27;;
14121;SDS011;7139;48.114;11.442;2022-08-19T11:39:14;8.53;;;7.73;;
14121;SDS011;7139;48.114;11.442;2022-08-19T11:41:44;6.90;;;6.40;;
14121;SDS011;7139;48.114;11.442;2022-08-19T11:44:11;6.27;;;5.77;;
14121;SDS011;7139;48.114;11.442;2022-08-19T11:46:39;5.90;;;5.40;;
14121;SDS011;7139;48.114;11.442;2022-08-19T11:49:10;5.27;;;4.77;;
14121;SDS011;7139;48.114;11.442;2022-08-19T11:51:37;4.83;;;4.43;;
14121;SDS011;7139;48.114;11.442;2022-08-19T11:54:05;4.60;;;4.20;;
14121;SDS011;7139;48.114;11.442;2022-08-19T11:56:32;4.77;;;4.37;;
14121;SDS011;7139;48.114;11.442;2022-08-19T11:59:00;2.90;;;2.70;;
14121;SDS011;7139;48.114;11.442;2022-08-19T12:01:28;2.60;;;2.40;;
14121;SDS011;7139;48.114;11.442;2022-08-19T12:03:56;2.27;;;2.10;;
14121;SDS011;7139;48.114;11.442;2022-08-19T12:06:31;2.60;;;2.40;;
14121;SDS011;7139;48.114;11.442;2022-08-19T12:09:00;2.90;;;2.70;;
14121;SDS011;7139;48.114;11.442;2022-08-19T12:11:29;4.17;;;3.80;;
14121;SDS011;7139;48.114;11.442;2022-08-19T12:13:55;3.43;;;3.13;;
14121;SDS011;7139;48.114;11.442;2022-08-19T12:16:25;3.20;;;2.90;;
14121;SDS011;7139;48.114;11.442;2022-08-19T12:18:53;3.10;;;2.90;;
14121;SDS011;7139;48.114;11.442;2022-08-19T12:21:22;3.03;;;2.73;;
14121;SDS011;7139;48.114;11.442;2022-08-19T12:23:53;2.50;;;2.30;;
14121;SDS011;7139;48.114;11.442;2022-08-19T12:26:21;3.00;;;2.70;;
14121;SDS011;7139;48.114;11.442;2022-08-19T12:28:47;2.97;;;2.77;;
14121;SDS011;7139;48.114;11.442;2022-08-19T12:31:15;2.83;;;2.63;;
14121;SDS011;7139;48.114;11.442;2022-08-19T12:33:44;3.20;;;3.00;;
14121;SDS011;7139;48.114;11.442;2022-08-19T12:36:12;3.90;;;3.60;;
14121;SDS011;7139;48.114;11.442;2022-08-19T12:38:40;4.60;;;4.20;;
14121;SDS011;7139;48.114;11.442;2022-08-19T12:41:09;2.93;;;2.73;;
14121;SDS011;7139;48.114;11.442;2022-08-19T12:43:38;2.60;;;2.40;;
14121;SDS011;7139;48.114;11.442;2022-08-19T12:46:06;2.50;;;2.30;;
14121;SDS011;7139;48.114;11.442;2022-08-19T12:48:33;2.90;;;2.60;;
14121;SDS011;7139;48.114;11.442;2022-08-19T12:51:05;3.87;;;2.67;;
14121;SDS011;7139;48.114;11.442;2022-08-19T12:53:34;2.30;;;2.17;;
14121;SDS011;7139;48.114;11.442;2022-08-19T12:56:01;2.57;;;2.37;;
14121;SDS011;7139;48.114;11.442;2022-08-19T12:58:29;3.00;;;2.70;;
14121;SDS011;7139;48.114;11.442;2022-08-19T13:00:59;2.60;;;2.40;;
14121;SDS011;7139;48.114;11.442;2022-08-19T13:03:32;2.60;;;2.40;;
14121;SDS011;7139;48.114;11.442;2022-08-19T13:05:58;2.70;;;2.50;;
14121;SDS011;7139;48.114;11.442;2022-08-19T13:08:26;2.60;;;2.40;;
14121;SDS011;7139;48.114;11.442;2022-08-19T13:10:53;2.70;;;2.50;;
14121;SDS011;7139;48.114;11.442;2022-08-19T13:13:20;2.63;;;2.40;;
14121;SDS011;7139;48.114;11.442;2022-08-19T13:15:47;2.47;;;2.27;;
14121;SDS011;7139;48.114;11.442;2022-08-19T13:18:14;2.83;;;2.63;;
14121;SDS011;7139;48.114;11.442;2022-08-19T13:20:41;2.90;;;2.40;;
14121;SDS011;7139;48.114;11.442;2022-08-19T13:23:08;3.37;;;2.80;;
14121;SDS011;7139;48.114;11.442;2022-08-19T13:25:36;2.80;;;2.60;;
14121;SDS011;7139;48.114;11.442;2022-08-19T13:28:03;3.20;;;3.00;;
14121;SDS011;7139;48.114;11.442;2022-08-19T13:30:31;3.03;;;2.83;;
14121;SDS011;7139;48.114;11.442;2022-08-19T13:33:16;3.30;;;3.00;;
14121;SDS011;7139;48.114;11.442;2022-08-19T13:35:44;3.20;;;2.90;;
14121;SDS011;7139;48.114;11.442;2022-08-19T13:38:14;2.93;;;2.73;;
14121;SDS011;7139;48.114;11.442;2022-08-19T13:40:43;3.40;;;3.20;;
14121;SDS011;7139;48.114;11.442;2022-08-19T13:43:11;3.47;;;3.27;;
14121;SDS011;7139;48.114;11.442;2022-08-19T13:45:38;4.07;;;2.97;;
14121;SDS011;7139;48.114;11.442;2022-08-19T13:48:06;3.67;;;3.37;;
14121;SDS011;7139;48.114;11.442;2022-08-19T13:50:34;3.70;;;3.40;;
14121;SDS011;7139;48.114;11.442;2022-08-19T13:53:06;4.23;;;3.73;;
14121;SDS011;7139;48.114;11.442;2022-08-19T13:55:33;4.00;;;3.70;;
14121;SDS011;7139;48.114;11.442;2022-08-19T13:58:02;4.00;;;3.70;;
14121;SDS011;7139;48.114;11.442;2022-08-19T14:00:30;4.37;;;3.90;;
14121;SDS011;7139;48.114;11.442;2022-08-19T14:02:59;4.50;;;4.10;;
14121;SDS011;7139;48.114;11.442;2022-08-19T14:05:26;4.10;;;3.80;;
14121;SDS011;7139;48.114;11.442;2022-08-19T14:07:54;3.73;;;3.43;;
14121;SDS011;7139;48.114;11.442;2022-08-19T14:10:21;3.60;;;3.40;;
14121;SDS011;7139;48.114;11.442;2022-08-19T14:12:49;3.83;;;3.53;;
14121;SDS011;7139;48.114;11.442;2022-08-19T14:15:19;3.47;;;3.10;;
14121;SDS011;7139;48.114;11.442;2022-08-19T14:17:46;2.93;;;2.73;;
14121;SDS011;7139;48.114;11.442;2022-08-19T14:20:14;3.20;;;3.00;;
14121;SDS011;7139;48.114;11.442;2022-08-19T14:22:42;2.83;;;2.63;;
14121;SDS011;7139;48.114;11.442;2022-08-19T14:25:10;3.17;;;2.87;;
14121;SDS011;7139;48.114;11.442;2022-08-19T14:27:40;2.80;;;2.60;;
14121;SDS011;7139;48.114;11.442;2022-08-19T14:30:08;2.80;;;2.50;;
14121;SDS011;7139;48.114;11.442;2022-08-19T14:32:38;2.90;;;2.57;;
14121;SDS011;7139;48.114;11.442;2022-08-19T14:35:08;2.60;;;2.40;;
14121;SDS011;7139;48.114;11.442;2022-08-19T14:37:37;2.63;;;2.43;;
14121;SDS011;7139;48.114;11.442;2022-08-19T14:40:05;2.73;;;2.53;;
14121;SDS011;7139;48.114;11.442;2022-08-19T14:42:33;4.07;;;2.47;;
14121;SDS011;7139;48.114;11.442;2022-08-19T14:45:00;2.93;;;2.60;;